Time;durP1;ratioP1;P1;durP2;ratioP2;P2;SDS_P1;SDS_P2;PMS_P1;PMS_P2;Temp;Humidity;BMP_temperature;BMP_pressure;BME280_temperature;BME280_humidity;BME280_pressure;Samples;Min_cycle;Max_cycle;Signal;HPM_P1;HPM_P2
2024/02/20 00:02:18;;;;;;;1944.78;874.70;;;;;;;21.55;40.69;102580.44;5021162;28;20045;-82
2024/02/20 00:04:44;;;;;;;1951.13;873.17;;;;;;;21.54;40.76;102583.22;5019162;28;20041;-82
2024/02/20 00:07:10;;;;;;;1964.75;903.88;;;;;;;21.09;40.83;102510.66;5019698;28;20136;-82
2024/02/20 00:09:35;;;;;;;1976.68;924.00;;;;;;;21.51;40.94;102578.22;5021196;28;20600;-81
2024/02/20 00:12:01;;;;;;;1945.72;867.78;;;;;;;21.27;41.00;102546.97;5004990;28;20046;-82
2024/02/20 00:14:27;;;;;;;1961.45;892.42;;;;;;;21.25;40.99;102544.47;5018335;28;20115;-83
2024/02/20 00:16:53;;;;;;;1957.65;886.30;;;;;;;21.47;40.81;102574.19;5015312;28;20041;-82
2024/02/20 00:19:20;;;;;;;1952.10;883.83;;;;;;;21.41;41.02;102568.53;5019642;28;20041;-81
2024/02/20 00:21:46;;;;;;;1939.65;874.78;;;;;;;21.37;40.94;102564.50;5020400;28;20079;-82
2024/02/20 00:24:12;;;;;;;1954.47;887.38;;;;;;;21.41;41.16;102570.34;5007324;28;20044;-81
2024/02/20 00:26:38;;;;;;;1955.43;891.00;;;;;;;21.34;41.03;102566.59;5016011;28;20029;-82
2024/02/20 00:29:04;;;;;;;1952.10;892.55;;;;;;;21.07;41.01;102517.06;5005066;28;20512;-82
2024/02/20 00:31:32;;;;;;;1920.57;855.85;;;;;;;21.21;40.67;102547.56;5021869;28;20574;-81
2024/02/20 00:33:59;;;;;;;1936.18;891.25;;;;;;;21.28;41.17;102562.72;5013350;28;20131;-83
2024/02/20 00:36:25;;;;;;;1880.43;811.40;;;;;;;21.34;41.04;102587.78;5011872;28;20040;-82
2024/02/20 00:38:50;;;;;;;1952.68;877.13;;;;;;;21.13;40.91;102565.00;5020682;28;20051;-82
2024/02/20 00:41:18;;;;;;;1939.05;866.55;;;;;;;21.24;41.08;102582.56;5024037;28;20037;-82
2024/02/20 00:43:44;;;;;;;1948.82;892.85;;;;;;;21.30;40.89;102586.44;5022352;28;20053;-83
2024/02/20 00:46:20;;;;;;;1954.55;877.17;;;;;;;21.30;40.79;102589.06;5005006;28;20060;-82
2024/02/20 00:48:50;;;;;;;1954.57;875.63;;;;;;;21.26;40.96;102588.53;5016903;28;20042;-82
2024/02/20 00:51:17;;;;;;;1949.25;878.25;;;;;;;21.25;41.01;102594.81;5014832;28;20077;-83
2024/02/20 00:53:43;;;;;;;1947.20;875.53;;;;;;;21.24;40.89;102598.47;5018526;28;20505;-83
2024/02/20 00:56:09;;;;;;;1961.32;879.95;;;;;;;21.25;40.73;102608.06;5018181;28;20037;-82
2024/02/20 00:58:34;;;;;;;1967.60;884.88;;;;;;;21.16;41.08;102597.47;5015309;28;20622;-82
2024/02/20 01:01:00;;;;;;;1971.50;889.08;;;;;;;21.21;40.99;102609.31;5020988;28;20072;-81
2024/02/20 01:03:26;;;;;;;1978.38;893.83;;;;;;;21.19;40.88;102607.81;5020388;28;20739;-83
2024/02/20 01:05:52;;;;;;;1967.20;887.50;;;;;;;21.21;40.66;102611.97;5018808;28;20046;-82
2024/02/20 01:08:17;;;;;;;1975.70;893.05;;;;;;;20.90;41.21;102574.28;5017424;28;20195;-81
2024/02/20 01:10:44;;;;;;;1963.75;889.95;;;;;;;21.17;40.98;102623.81;5005075;28;20137;-82
2024/02/20 01:13:10;;;;;;;1971.80;892.20;;;;;;;20.96;40.89;102591.41;5017164;28;20553;-82
2024/02/20 01:15:35;;;;;;;1966.60;886.65;;;;;;;20.80;41.20;102571.66;5012833;28;20687;-82
2024/02/20 01:18:01;;;;;;;1959.65;888.90;;;;;;;21.02;40.89;102606.75;5019933;28;20112;-82
2024/02/20 01:20:27;;;;;;;1966.00;894.45;;;;;;;21.00;40.78;102595.44;5014399;28;20107;-82
2024/02/20 01:22:53;;;;;;;1955.32;887.78;;;;;;;21.11;41.10;102616.47;5021562;28;20048;-82
2024/02/20 01:25:20;;;;;;;1958.28;889.50;;;;;;;20.88;41.07;102584.19;5018469;28;20046;-82
2024/02/20 01:27:46;;;;;;;1951.03;884.65;;;;;;;21.10;41.03;102617.44;5015449;28;20059;-83
2024/02/20 01:30:13;;;;;;;1946.90;883.45;;;;;;;20.87;40.88;102582.53;5019721;28;20076;-82
2024/02/20 01:32:39;;;;;;;1940.30;860.50;;;;;;;21.00;41.00;102611.31;5018563;28;20120;-83
2024/02/20 01:35:05;;;;;;;1944.15;873.95;;;;;;;20.61;41.16;102553.19;5015680;28;20068;-83
2024/02/20 01:37:31;;;;;;;1926.18;875.35;;;;;;;21.06;40.92;102622.19;5016698;28;20041;-81
2024/02/20 01:39:57;;;;;;;1929.85;874.00;;;;;;;21.04;41.13;102616.22;5011471;28;20049;-82
2024/02/20 01:42:22;;;;;;;1936.70;875.83;;;;;;;20.74;41.12;102576.72;5013400;28;20038;-83
2024/02/20 01:44:48;;;;;;;1934.10;869.50;;;;;;;21.04;41.25;102639.22;5017203;28;20045;-82
2024/02/20 01:47:14;;;;;;;1930.45;859.95;;;;;;;20.90;41.25;102618.47;5019326;28;20061;-83
2024/02/20 01:49:41;;;;;;;1930.10;862.95;;;;;;;21.01;41.09;102634.22;5015198;28;20678;-82
2024/02/20 01:52:12;;;;;;;1937.68;864.53;;;;;;;21.00;40.96;102635.16;5016134;28;20116;-84
2024/02/20 01:54:41;;;;;;;1960.60;913.13;;;;;;;21.00;40.86;102629.88;5017956;28;20048;-82
2024/02/20 01:57:07;;;;;;;1975.18;948.35;;;;;;;20.77;41.16;102595.78;5009624;28;20033;-82
2024/02/20 01:59:34;;;;;;;1959.82;894.90;;;;;;;20.73;41.19;102593.56;5016847;28;20456;-83
2024/02/20 02:02:00;;;;;;;1949.03;878.85;;;;;;;20.88;41.25;102621.28;5020266;28;20056;-82
2024/02/20 02:04:25;;;;;;;1950.10;877.03;;;;;;;20.97;41.21;102638.94;5018622;28;20473;-82
2024/02/20 02:06:51;;;;;;;1943.65;875.33;;;;;;;20.94;41.15;102636.56;5024452;28;20068;-82
2024/02/20 02:09:16;;;;;;;1944.75;876.95;;;;;;;20.97;41.25;102646.06;5000258;28;20056;-82
2024/02/20 02:11:42;;;;;;;1953.35;878.92;;;;;;;20.81;41.06;102625.44;5020616;28;20064;-82
2024/02/20 02:14:07;;;;;;;1954.70;883.47;;;;;;;20.94;41.23;102647.19;5021676;28;20508;-82
2024/02/20 02:16:33;;;;;;;1953.78;882.40;;;;;;;19.88;41.17;102470.84;5024634;28;20463;-81
2024/02/20 02:18:59;;;;;;;1949.32;881.75;;;;;;;20.71;40.90;102608.78;5026477;28;20037;-82
2024/02/20 02:21:24;;;;;;;1945.55;879.47;;;;;;;20.77;41.17;102621.44;5001856;28;20045;-82
2024/02/20 02:23:50;;;;;;;1937.13;874.08;;;;;;;20.91;41.03;102634.22;5019039;28;20591;-82
2024/02/20 02:26:16;;;;;;;1938.63;872.88;;;;;;;20.72;41.11;102611.28;5019775;28;20099;-82
2024/02/20 02:28:47;;;;;;;1935.43;869.78;;;;;;;20.89;41.18;102640.66;5024238;28;20069;-83
2024/02/20 02:31:13;;;;;;;1941.95;875.03;;;;;;;20.81;41.12;102636.88;5018970;28;20067;-83
2024/02/20 02:33:39;;;;;;;1951.18;887.10;;;;;;;20.88;41.09;102657.50;5021468;28;20045;-82
2024/02/20 02:36:04;;;;;;;1949.55;881.63;;;;;;;20.37;41.09;102564.22;5024356;28;20034;-81
2024/02/20 02:38:30;;;;;;;1953.65;886.75;;;;;;;20.62;41.07;102609.59;5020376;28;20037;-82
2024/02/20 02:40:56;;;;;;;1970.85;891.92;;;;;;;20.41;41.15;102580.66;5003911;28;20037;-83
2024/02/20 02:43:21;;;;;;;1961.55;892.00;;;;;;;20.64;41.17;102624.38;5016877;28;20041;-82
2024/02/20 02:45:47;;;;;;;1962.70;897.58;;;;;;;20.81;41.26;102647.47;5024110;28;20056;-82
2024/02/20 02:48:12;;;;;;;1964.22;893.28;;;;;;;20.45;41.37;102585.53;5023161;28;20057;-82
2024/02/20 02:50:38;;;;;;;1961.15;891.45;;;;;;;20.79;41.27;102643.31;5022197;28;20037;-82
2024/02/20 02:53:04;;;;;;;1950.28;883.17;;;;;;;20.79;41.25;102638.84;5024155;28;20468;-82
2024/02/20 02:55:29;;;;;;;1946.25;880.20;;;;;;;20.77;41.14;102638.16;5018603;28;20111;-80
2024/02/20 02:57:55;;;;;;;1936.00;872.15;;;;;;;20.76;41.22;102641.78;5020328;28;20047;-82
2024/02/20 03:00:20;;;;;;;1937.88;877.70;;;;;;;20.77;41.26;102637.31;5019895;28;20425;-83
2024/02/20 03:02:46;;;;;;;1921.10;849.08;;;;;;;20.75;41.08;102633.97;5020414;28;20569;-83
2024/02/20 03:05:12;;;;;;;1967.93;930.72;;;;;;;20.71;41.26;102635.25;5020810;28;20045;-82
2024/02/20 03:07:39;;;;;;;1967.90;938.00;;;;;;;20.65;41.21;102620.78;5004491;28;20041;-82
2024/02/20 03:10:05;;;;;;;1961.50;939.53;;;;;;;20.69;41.34;102630.09;5016979;28;20508;-82
2024/02/20 03:12:31;;;;;;;1972.47;944.13;;;;;;;20.29;41.32;102560.59;5005735;28;20103;-82
2024/02/20 03:14:57;;;;;;;1987.10;950.78;;;;;;;20.39;41.02;102575.50;5020989;28;20038;-82
2024/02/20 03:17:22;;;;;;;1995.03;959.97;;;;;;;20.37;41.30;102577.44;5020138;28;20116;-83
2024/02/20 03:19:48;;;;;;;1996.03;960.30;;;;;;;20.71;41.28;102637.91;5015851;28;20120;-82
2024/02/20 03:22:15;;;;;;;1867.18;765.25;;;;;;;20.50;41.27;102595.72;5020374;28;20061;-83
2024/02/20 03:24:41;;;;;;;1923.43;844.33;;;;;;;20.51;41.29;102610.63;5019032;28;20046;-82
2024/02/20 03:27:07;;;;;;;1995.90;958.45;;;;;;;20.67;41.36;102641.81;5001460;28;20057;-83
2024/02/20 03:29:32;;;;;;;1996.15;956.88;;;;;;;20.42;41.16;102604.34;5007342;28;20438;-82
2024/02/20 03:31:59;;;;;;;1989.13;958.13;;;;;;;20.67;41.17;102633.88;5029260;28;20048;-82
2024/02/20 03:34:25;;;;;;;1942.57;888.20;;;;;;;20.66;41.22;102633.03;5020668;28;20037;-82
2024/02/20 03:36:51;;;;;;;1959.63;915.20;;;;;;;20.41;41.23;102596.53;5023457;28;20033;-83
2024/02/20 03:39:16;;;;;;;1967.38;929.55;;;;;;;20.65;41.17;102627.88;5023742;28;20896;-82
2024/02/20 03:41:42;;;;;;;1961.00;927.28;;;;;;;20.63;41.31;102628.00;5018633;28;20418;-83
2024/02/20 03:44:07;;;;;;;1968.07;931.15;;;;;;;20.62;41.42;102633.44;5018599;28;20044;-82
2024/02/20 03:46:33;;;;;;;1958.95;921.63;;;;;;;20.57;41.49;102628.56;4992508;28;20045;-83
2024/02/20 03:48:59;;;;;;;1956.22;924.08;;;;;;;20.60;41.26;102630.09;5008945;28;20033;-82
2024/02/20 03:51:24;;;;;;;1930.40;893.22;;;;;;;20.17;41.19;102559.94;5017980;28;20056;-82
2024/02/20 03:53:50;;;;;;;1913.38;860.42;;;;;;;20.40;41.37;102603.63;5021314;28;20033;-82
2024/02/20 03:56:15;;;;;;;1921.53;861.95;;;;;;;20.38;41.45;102600.28;5019652;28;20417;-83
2024/02/20 03:58:41;;;;;;;1910.43;853.35;;;;;;;20.57;41.31;102639.16;5003324;28;20064;-83
2024/02/20 04:01:06;;;;;;;1904.10;850.72;;;;;;;20.57;41.47;102633.03;5025053;28;20037;-82
2024/02/20 04:03:32;;;;;;;1893.97;856.85;;;;;;;20.56;41.37;102632.19;5016711;28;20033;-82
2024/02/20 04:05:58;;;;;;;1886.22;852.13;;;;;;;20.06;41.32;102550.31;5020960;28;20463;-82
2024/02/20 04:08:24;;;;;;;1897.90;858.30;;;;;;;20.56;41.36;102629.53;5021119;28;20037;-82
2024/02/20 04:10:49;;;;;;;1893.07;850.72;;;;;;;20.57;41.30;102630.38;5018036;28;20049;-83
2024/02/20 04:13:15;;;;;;;1892.18;847.58;;;;;;;20.55;41.24;102627.03;5017111;28;20636;-83
2024/02/20 04:15:40;;;;;;;1887.28;841.80;;;;;;;20.41;41.37;102596.53;5019860;28;20067;-82
2024/02/20 04:18:06;;;;;;;1878.80;836.60;;;;;;;20.40;41.15;102608.06;5018865;28;20389;-82
2024/02/20 04:20:31;;;;;;;1887.03;853.03;;;;;;;20.34;41.43;102603.34;5017901;28;20098;-82
2024/02/20 04:22:57;;;;;;;1903.75;899.45;;;;;;;20.51;41.47;102635.28;5017358;28;20033;-83
2024/02/20 04:25:23;;;;;;;1924.40;931.28;;;;;;;20.51;41.47;102634.44;5004808;28;20038;-83
2024/02/20 04:27:50;;;;;;;1892.70;866.53;;;;;;;20.51;41.21;102635.28;5022016;28;20073;-82
2024/02/20 04:30:16;;;;;;;1911.60;881.85;;;;;;;20.37;41.39;102625.06;5022516;28;20053;-83
2024/02/20 04:32:41;;;;;;;1910.20;894.00;;;;;;;20.36;41.38;102612.81;5016700;28;20049;-83
2024/02/20 04:35:07;;;;;;;1932.78;929.83;;;;;;;20.35;41.21;102613.78;5014002;28;20037;-85
2024/02/20 04:37:33;;;;;;;1834.60;789.30;;;;;;;20.49;41.28;102625.81;5020636;28;20045;-83
2024/02/20 04:39:58;;;;;;;1837.45;792.13;;;;;;;20.48;41.18;102627.63;5012403;28;20044;-82
2024/02/20 04:42:24;;;;;;;1840.00;790.67;;;;;;;20.48;41.41;102629.44;5017816;28;20059;-82
2024/02/20 04:44:50;;;;;;;1840.80;792.17;;;;;;;20.46;41.46;102631.34;5017543;28;20048;-83
2024/02/20 04:47:15;;;;;;;1836.70;787.10;;;;;;;20.45;41.38;102621.75;5002717;28;20034;-83
2024/02/20 04:49:42;;;;;;;1830.15;788.00;;;;;;;20.23;41.32;102599.88;5021723;28;20377;-82
2024/02/20 04:52:08;;;;;;;1819.65;774.00;;;;;;;20.31;41.35;102614.22;5000177;28;20072;-83
2024/02/20 04:54:34;;;;;;;1824.97;778.90;;;;;;;20.35;41.43;102621.72;5021511;28;20068;-83
2024/02/20 04:56:59;;;;;;;1867.50;827.45;;;;;;;20.43;41.26;102640.41;5010594;28;20034;-82
2024/02/20 04:59:26;;;;;;;1887.57;869.28;;;;;;;20.43;41.29;102648.34;5017087;28;20056;-82
2024/02/20 05:01:52;;;;;;;1869.20;832.53;;;;;;;20.03;41.38;102581.50;5023182;28;20044;-82
2024/02/20 05:04:18;;;;;;;1867.18;831.33;;;;;;;20.40;41.42;102645.13;5036992;28;20095;-83
2024/02/20 05:06:45;;;;;;;1874.82;840.85;;;;;;;20.39;41.34;102638.16;5022300;28;20121;-83
2024/02/20 05:09:10;;;;;;;1881.50;861.15;;;;;;;20.23;41.43;102618.38;5018465;28;20041;-83
2024/02/20 05:11:36;;;;;;;1905.72;931.63;;;;;;;20.38;41.48;102650.56;5019538;28;20216;-83
2024/02/20 05:14:02;;;;;;;1934.65;980.08;;;;;;;20.38;41.27;102647.91;5016626;28;20037;-84
2024/02/20 05:16:27;;;;;;;1920.50;934.53;;;;;;;20.38;41.43;102645.25;5017708;28;20457;-82
2024/02/20 05:18:53;;;;;;;1885.68;848.40;;;;;;;20.12;41.51;102607.13;5002871;28;20239;-82
2024/02/20 05:21:18;;;;;;;1834.28;783.35;;;;;;;20.33;41.38;102636.91;5022138;28;20504;-83
2024/02/20 05:23:44;;;;;;;1846.55;810.35;;;;;;;20.36;41.42;102644.56;5013664;28;20087;-81
2024/02/20 05:26:09;;;;;;;1883.68;860.88;;;;;;;20.30;41.51;102631.06;5019359;28;20046;-83
2024/02/20 05:28:35;;;;;;;1874.57;852.65;;;;;;;20.35;41.57;102642.91;5017443;28;20060;-83
2024/02/20 05:31:00;;;;;;;1888.97;858.60;;;;;;;20.36;41.63;102647.22;5021261;28;20057;-84
2024/02/20 05:33:26;;;;;;;1875.90;849.95;;;;;;;20.35;41.28;102634.13;5022468;28;20046;-82
2024/02/20 05:35:52;;;;;;;1887.60;855.28;;;;;;;20.16;41.58;102619.94;5022920;28;20115;-81
2024/02/20 05:38:18;;;;;;;1885.38;851.13;;;;;;;20.23;41.58;102630.78;5005817;28;20033;-81
2024/02/20 05:40:44;;;;;;;1890.55;865.40;;;;;;;20.33;41.46;102638.72;5021013;28;20051;-83
2024/02/20 05:43:09;;;;;;;1865.47;831.47;;;;;;;20.25;41.41;102618.25;5023176;28;20041;-82
2024/02/20 05:45:35;;;;;;;1893.88;904.50;;;;;;;20.33;41.66;102628.16;5001885;28;20048;-83
2024/02/20 05:48:03;;;;;;;1888.38;877.92;;;;;;;20.32;41.46;102623.84;5024739;28;20037;-83
2024/02/20 05:50:30;;;;;;;1844.15;800.28;;;;;;;20.32;41.16;102631.78;5018284;28;20116;-82
2024/02/20 05:52:55;;;;;;;1845.90;813.45;;;;;;;20.32;41.57;102621.19;5021379;28;20481;-83
2024/02/20 05:55:21;;;;;;;1869.65;841.90;;;;;;;19.98;41.54;102571.34;5021524;28;20136;-82
2024/02/20 05:57:47;;;;;;;1839.20;815.28;;;;;;;20.18;41.50;102601.28;5018677;28;20029;-83
2024/02/20 06:00:13;;;;;;;1803.55;777.60;;;;;;;20.13;41.48;102588.47;5025874;28;20029;-80
2024/02/20 06:02:39;;;;;;;1841.07;829.40;;;;;;;19.96;41.48;102559.22;5025171;28;20131;-82
2024/02/20 06:05:07;;;;;;;1861.50;840.40;;;;;;;20.30;41.59;102615.19;5025865;28;20048;-82
2024/02/20 06:07:32;;;;;;;1847.82;825.83;;;;;;;19.98;41.56;102567.88;5025369;28;20048;-82
2024/02/20 06:09:58;;;;;;;1855.13;826.55;;;;;;;20.29;41.48;102619.66;5017067;28;20466;-82
2024/02/20 06:12:23;;;;;;;1863.38;839.60;;;;;;;20.30;41.51;102609.91;4998478;28;20146;-82
2024/02/20 06:14:49;;;;;;;1837.70;818.88;;;;;;;20.06;41.45;102568.00;5023474;28;20145;-81
2024/02/20 06:17:14;;;;;;;1870.43;850.03;;;;;;;20.05;41.51;102561.03;5007267;28;20041;-83
2024/02/20 06:19:40;;;;;;;1862.63;862.17;;;;;;;20.06;41.47;102570.63;5018378;28;20489;-83
2024/02/20 06:22:06;;;;;;;1851.07;830.65;;;;;;;20.12;41.46;102576.22;5007068;28;20053;-83
2024/02/20 06:24:32;;;;;;;1848.35;829.55;;;;;;;19.93;41.53;102547.13;5020323;28;20034;-83
2024/02/20 06:26:57;;;;;;;1893.75;873.80;;;;;;;20.11;41.52;102571.91;5022054;28;20748;-83
2024/02/20 06:29:23;;;;;;;1880.32;862.33;;;;;;;20.11;41.77;102571.91;5001151;28;20065;-82
2024/02/20 06:31:51;;;;;;;1870.68;856.70;;;;;;;20.31;41.55;102595.72;5025678;28;20126;-82
2024/02/20 06:34:17;;;;;;;1915.13;912.80;;;;;;;20.02;41.65;102548.09;5018241;28;20818;-83
2024/02/20 06:36:43;;;;;;;1914.47;912.50;;;;;;;20.29;41.47;102598.50;5021879;28;20095;-81
2024/02/20 06:39:08;;;;;;;1927.85;913.33;;;;;;;19.87;41.56;102535.28;5021391;28;21880;-83
2024/02/20 06:41:34;;;;;;;1915.15;901.40;;;;;;;20.30;41.50;102604.63;5021642;28;20041;-83
2024/02/20 06:44:00;;;;;;;1906.30;886.00;;;;;;;20.11;41.63;102573.72;5024266;28;20038;-82
2024/02/20 06:46:26;;;;;;;1928.82;926.33;;;;;;;20.29;41.69;102602.91;5025219;28;20076;-82
2024/02/20 06:48:51;;;;;;;1933.43;923.28;;;;;;;20.28;41.53;102596.78;5007588;28;20466;-83
2024/02/20 06:51:19;;;;;;;1938.63;926.08;;;;;;;19.95;41.67;102549.63;5018482;28;20084;-83
2024/02/20 06:53:44;;;;;;;1946.53;933.65;;;;;;;20.28;41.60;102596.78;5001932;28;20045;-82
2024/02/20 06:56:09;;;;;;;1909.47;866.28;;;;;;;20.28;41.58;102604.72;5013455;28;20096;-83
2024/02/20 06:58:35;;;;;;;1878.65;836.97;;;;;;;19.85;41.60;102536.41;5018415;28;20034;-82
2024/02/20 07:01:01;;;;;;;1945.20;928.63;;;;;;;20.18;42.08;102603.91;5002792;28;20056;-86
2024/02/20 07:03:26;;;;;;;1906.32;883.30;;;;;;;20.25;41.89;102610.31;5014305;28;20049;-82
2024/02/20 07:05:52;;;;;;;1944.45;934.42;;;;;;;20.26;41.76;102605.84;5021135;28;20642;-81
2024/02/20 07:08:17;;;;;;;1951.05;946.50;;;;;;;20.24;41.94;102600.69;5012516;28;20030;-81
2024/02/20 07:10:43;;;;;;;1935.47;920.75;;;;;;;20.27;41.77;102607.50;5016112;28;20046;-81
2024/02/20 07:13:08;;;;;;;1933.20;929.67;;;;;;;20.26;41.91;102596.09;5021130;28;20671;-80
2024/02/20 07:15:34;;;;;;;1935.15;927.15;;;;;;;19.94;41.91;102559.38;5015036;28;20834;-81
2024/02/20 07:17:59;;;;;;;1900.60;875.50;;;;;;;20.21;41.78;102599.19;5018842;28;20509;-81
2024/02/20 07:20:25;;;;;;;1885.75;857.03;;;;;;;20.28;41.74;102599.44;5019600;28;20052;-81
2024/02/20 07:22:51;;;;;;;1896.75;876.97;;;;;;;20.47;41.56;102599.47;5004033;28;20064;-80
2024/02/20 07:25:21;;;;;;;1874.55;852.67;;;;;;;20.70;41.18;102607.94;5021458;28;20041;-81
2024/02/20 07:27:46;;;;;;;1872.63;869.42;;;;;;;20.84;40.75;102584.63;5016072;28;20473;-81
2024/02/20 07:30:13;;;;;;;1884.55;874.30;;;;;;;20.99;40.59;102605.19;5021910;28;20057;-81
2024/02/20 07:32:40;;;;;;;1894.93;884.22;;;;;;;20.96;40.53;102594.06;5018888;28;20041;-81
2024/02/20 07:35:06;;;;;;;1896.22;881.88;;;;;;;20.95;40.77;102598.53;5017554;28;20065;-81
2024/02/20 07:37:31;;;;;;;1877.82;879.35;;;;;;;20.96;40.62;102604.66;5020952;28;20052;-80
2024/02/20 07:39:57;;;;;;;1881.13;874.58;;;;;;;20.96;40.84;102602.84;5020942;28;20030;-81
2024/02/20 07:42:22;;;;;;;1890.43;884.83;;;;;;;20.94;40.77;102603.97;5018414;28;20510;-83
2024/02/20 07:44:48;;;;;;;1904.07;887.85;;;;;;;20.92;40.75;102601.47;5017661;28;20091;-83
2024/02/20 07:47:14;;;;;;;1899.88;879.03;;;;;;;20.94;40.84;102603.97;5018664;28;20041;-81
2024/02/20 07:49:39;;;;;;;1904.18;880.65;;;;;;;20.89;40.81;102611.50;5015211;28;20041;-82
2024/02/20 07:52:05;;;;;;;1905.72;879.95;;;;;;;20.88;40.80;102612.50;5013284;28;20041;-81
2024/02/20 07:54:31;;;;;;;1890.72;866.00;;;;;;;20.53;40.80;102566.31;5017693;28;20046;-82
2024/02/20 07:56:56;;;;;;;1878.88;863.60;;;;;;;20.84;41.02;102619.91;5016699;28;20026;-81
2024/02/20 07:59:22;;;;;;;1808.50;774.88;;;;;;;20.83;40.91;102614.75;5018605;28;20120;-83
2024/02/20 08:01:49;;;;;;;1824.68;789.67;;;;;;;20.81;41.23;102615.69;5009303;28;20039;-82
2024/02/20 08:04:15;;;;;;;1872.28;827.03;;;;;;;20.72;41.12;102608.63;5013056;28;20056;-83
2024/02/20 08:06:40;;;;;;;1864.90;828.65;;;;;;;20.77;41.29;102611.66;5014094;28;20037;-82
2024/02/20 08:09:06;;;;;;;1862.05;822.45;;;;;;;20.78;40.96;102620.44;5014414;28;20488;-80
2024/02/20 08:11:34;;;;;;;1865.60;829.47;;;;;;;20.76;41.03;102617.13;4999219;28;20045;-85
2024/02/20 08:13:59;;;;;;;1903.00;881.40;;;;;;;20.76;40.99;102625.88;5003125;28;20508;-82
2024/02/20 08:16:25;;;;;;;1908.57;906.08;;;;;;;20.75;41.02;102621.56;5018967;28;20037;-81
2024/02/20 08:18:50;;;;;;;1917.05;910.65;;;;;;;20.56;40.97;102587.19;4994255;28;20052;-83
2024/02/20 08:21:16;;;;;;;1908.57;903.28;;;;;;;20.48;40.87;102564.09;5018983;28;20103;-82
2024/02/20 08:23:42;;;;;;;1917.03;905.08;;;;;;;20.77;40.78;102613.50;5009078;28;20029;-81
2024/02/20 08:26:08;;;;;;;1852.18;825.53;;;;;;;20.75;41.08;102599.56;5016644;28;20053;-80
2024/02/20 08:28:33;;;;;;;1804.68;778.17;;;;;;;20.59;40.91;102583.44;5014538;28;20807;-79
2024/02/20 08:30:59;;;;;;;1807.70;780.38;;;;;;;20.77;41.13;102605.53;5014767;28;20496;-83
2024/02/20 08:33:25;;;;;;;1813.43;785.90;;;;;;;20.78;41.11;102608.03;5016864;28;20041;-83
2024/02/20 08:35:52;;;;;;;1812.18;781.33;;;;;;;20.66;40.83;102587.19;5016638;28;20045;-82
2024/02/20 08:38:17;;;;;;;1808.32;778.78;;;;;;;20.79;40.87;102603.59;5018532;28;20038;-83
2024/02/20 08:40:43;;;;;;;1790.70;763.22;;;;;;;20.54;40.84;102553.91;5017109;28;20636;-82
2024/02/20 08:43:08;;;;;;;1732.90;742.45;;;;;;;20.52;40.17;102551.41;4994160;28;20052;-81
2024/02/20 08:45:34;;;;;;;1659.22;687.33;;;;;;;20.89;40.18;102590.34;5017323;28;20759;-81
2024/02/20 08:48:01;;;;;;;1563.88;611.15;;;;;;;20.98;40.31;102577.03;5002068;28;20048;-81
2024/02/20 08:50:27;;;;;;;1619.38;654.70;;;;;;;21.09;40.28;102586.63;5020022;28;20049;-82
2024/02/20 08:52:53;;;;;;;1847.72;869.97;;;;;;;21.16;40.18;102597.47;5017398;28;20068;-82
2024/02/20 08:55:19;;;;;;;1834.85;856.03;;;;;;;20.77;40.19;102542.00;5018735;28;20041;-83
2024/02/20 08:57:44;;;;;;;1832.18;859.13;;;;;;;21.18;40.06;102604.28;5014230;28;20627;-83
2024/02/20 09:00:12;;;;;;;1864.07;865.80;;;;;;;21.10;40.48;102596.25;4998271;28;20263;-81
2024/02/20 09:02:41;;;;;;;1882.30;872.70;;;;;;;21.01;40.49;102589.19;5016854;28;20394;-83
2024/02/20 09:05:10;;;;;;;1840.45;826.28;;;;;;;21.09;40.64;102605.19;5019400;28;20118;-83
2024/02/20 09:07:36;;;;;;;1708.28;693.08;;;;;;;21.13;40.38;102610.03;5017007;28;20046;-82
2024/02/20 09:10:05;;;;;;;1610.00;649.55;;;;;;;20.96;40.42;102583.47;5026953;28;20037;-82
2024/02/20 09:12:32;;;;;;;1409.53;535.88;;;;;;;21.05;40.73;102596.69;5017896;28;20045;-82
2024/02/20 09:14:58;;;;;;;1790.05;795.15;;;;;;;20.67;40.51;102534.09;5016489;28;20060;-82
2024/02/20 09:17:23;;;;;;;1764.63;780.25;;;;;;;21.07;40.48;102599.19;5018036;28;20045;-84
2024/02/20 09:19:49;;;;;;;1745.13;744.80;;;;;;;20.98;40.48;102587.63;5024340;28;20050;-84
2024/02/20 09:22:15;;;;;;;1730.32;720.03;;;;;;;21.00;40.71;102598.09;5022428;28;20049;-82
2024/02/20 09:24:41;;;;;;;1683.07;682.40;;;;;;;21.05;40.41;102601.16;5020871;28;20049;-83
2024/02/20 09:27:06;;;;;;;1744.60;725.22;;;;;;;21.04;40.54;102592.38;5019815;28;20037;-82
2024/02/20 09:29:32;;;;;;;1683.13;696.13;;;;;;;20.95;40.74;102569.38;5024008;28;20080;-83
2024/02/20 09:31:58;;;;;;;1662.22;684.55;;;;;;;20.89;40.69;102556.75;5018220;28;20107;-84
2024/02/20 09:34:27;;;;;;;1663.53;678.70;;;;;;;20.93;40.71;102565.22;5019398;28;20052;-81
2024/02/20 09:36:53;;;;;;;1705.45;704.35;;;;;;;21.01;40.46;102576.78;5023640;28;20034;-82
2024/02/20 09:39:21;;;;;;;1728.90;738.47;;;;;;;20.88;40.48;102549.78;5018814;28;20048;-86
2024/02/20 09:41:52;;;;;;;1699.75;736.78;;;;;;;20.77;40.75;102526.13;5023363;28;20080;-85
2024/02/20 09:44:26;;;;;;;1689.47;735.25;;;;;;;21.01;40.77;102563.53;5019928;28;20049;-83
2024/02/20 09:46:55;;;;;;;1738.28;773.95;;;;;;;21.02;40.53;102559.06;5021521;28;20060;-84
2024/02/20 09:49:20;;;;;;;1777.20;803.92;;;;;;;20.89;40.69;102532.06;5023085;28;20164;-86
2024/02/20 09:51:46;;;;;;;1753.43;766.67;;;;;;;21.01;40.61;102552.94;5021858;28;20037;-86
2024/02/20 09:54:14;;;;;;;1673.22;691.38;;;;;;;21.01;40.61;102560.88;5020757;28;20037;-83
2024/02/20 09:56:41;;;;;;;1667.15;687.30;;;;;;;20.98;40.65;102558.50;5024375;28;20041;-82
2024/02/20 09:59:07;;;;;;;1736.75;758.15;;;;;;;20.88;40.62;102543.66;5021007;28;20115;-83
2024/02/20 10:01:34;;;;;;;1719.82;743.17;;;;;;;20.99;40.86;102565.47;5017350;28;20207;-83
2024/02/20 10:04:03;;;;;;;1738.15;759.75;;;;;;;20.69;40.77;102512.78;5022558;28;20069;-83
2024/02/20 10:06:31;;;;;;;1791.72;773.67;;;;;;;20.98;40.25;102568.25;5015501;28;20037;-84
2024/02/20 10:08:57;;;;;;;1796.72;771.88;;;;;;;20.98;41.02;102563.81;5014853;28;20037;-82
2024/02/20 10:11:23;;;;;;;1802.95;775.88;;;;;;;20.66;40.69;102515.72;5016143;28;20041;-84
2024/02/20 10:13:51;;;;;;;1798.85;772.75;;;;;;;20.88;40.82;102548.94;5020828;28;20053;-82
2024/02/20 10:16:17;;;;;;;1820.72;785.90;;;;;;;20.96;40.90;102554.34;5021863;28;20043;-81
2024/02/20 10:18:43;;;;;;;1771.78;751.40;;;;;;;20.91;40.78;102548.66;5020763;28;20054;-81
2024/02/20 10:21:09;;;;;;;1697.38;682.63;;;;;;;20.82;40.90;102534.44;5018889;28;20056;-82
2024/02/20 10:23:35;;;;;;;1743.43;710.05;;;;;;;20.97;40.60;102562.13;5020558;28;20033;-82
2024/02/20 10:26:01;;;;;;;1722.80;705.60;;;;;;;20.98;40.86;102573.56;5021138;28;20466;-82
2024/02/20 10:28:28;;;;;;;1717.28;701.45;;;;;;;20.88;40.66;102554.25;5022076;28;20033;-82
2024/02/20 10:30:55;;;;;;;1721.75;704.90;;;;;;;20.83;40.58;102530.03;5018499;28;20057;-83
2024/02/20 10:33:22;;;;;;;1718.75;697.40;;;;;;;20.76;40.56;102513.88;5022731;28;20045;-82
2024/02/20 10:35:47;;;;;;;1737.43;711.80;;;;;;;20.54;40.52;102483.28;5017198;28;20755;-82
2024/02/20 10:38:18;;;;;;;1739.38;711.78;;;;;;;20.99;40.45;102557.53;5022126;28;20037;-82
2024/02/20 10:40:43;;;;;;;1741.97;722.65;;;;;;;21.01;40.74;102549.47;5018013;28;20055;-83
2024/02/20 10:43:11;;;;;;;1741.90;722.50;;;;;;;21.10;40.22;102549.41;5037625;28;20458;-83